Time;durP1;ratioP1;P1;durP2;ratioP2;P2;SDS_P1;SDS_P2;PMS_P1;PMS_P2;Temp;Humidity;BMP_temperature;BMP_pressure;BME280_temperature;BME280_humidity;BME280_pressure;Samples;Min_cycle;Max_cycle;Signal;HPM_P1;HPM_P2
2023/11/30 00:01:49;;;;;;;1.00;0.80;;;;;;;;;;5025845;28;20081;-79
2023/11/30 00:04:15;;;;;;;1.92;1.05;;;;;;;;;;5019251;28;20113;-80
2023/11/30 00:06:41;;;;;;;1.20;0.88;;;;;;;;;;5020788;28;20018;-79
2023/11/30 00:09:07;;;;;;;1.80;1.20;;;;;;;;;;5032300;28;20014;-79
2023/11/30 00:11:33;;;;;;;1.70;0.88;;;;;;;;;;5025968;28;20034;-79
2023/11/30 00:14:00;;;;;;;0.98;0.93;;;;;;;;;;5005711;28;20034;-80
2023/11/30 00:16:26;;;;;;;0.60;0.52;;;;;;;;;;5017948;28;20120;-80
2023/11/30 00:18:52;;;;;;;1.70;1.13;;;;;;;;;;5014053;28;20113;-81
2023/11/30 00:21:18;;;;;;;1.70;0.90;;;;;;;;;;5021144;28;20034;-81
2023/11/30 00:23:44;;;;;;;1.00;0.90;;;;;;;;;;5009165;28;20053;-80
2023/11/30 00:26:11;;;;;;;1.17;1.00;;;;;;;;;;5012580;28;20026;-81
2023/11/30 00:28:37;;;;;;;1.88;1.10;;;;;;;;;;5042895;28;20026;-80
2023/11/30 00:31:04;;;;;;;1.35;1.17;;;;;;;;;;5024832;28;20085;-80
2023/11/30 00:33:30;;;;;;;0.98;0.88;;;;;;;;;;5027740;28;20033;-80
2023/11/30 00:35:56;;;;;;;3.72;1.00;;;;;;;;;;5019056;28;20041;-79
2023/11/30 00:38:22;;;;;;;0.88;0.85;;;;;;;;;;5021990;28;20026;-80
2023/11/30 00:40:48;;;;;;;1.27;0.80;;;;;;;;;;5011249;28;20022;-81
2023/11/30 00:43:14;;;;;;;2.10;1.20;;;;;;;;;;5016815;28;20029;-81
2023/11/30 00:45:40;;;;;;;0.93;0.85;;;;;;;;;;5022926;28;20018;-80
2023/11/30 00:48:06;;;;;;;0.93;0.70;;;;;;;;;;5025766;28;20080;-79
2023/11/30 00:50:32;;;;;;;1.15;0.90;;;;;;;;;;5026498;28;20018;-79
2023/11/30 00:52:58;;;;;;;1.80;0.98;;;;;;;;;;5032062;28;20034;-79
2023/11/30 00:55:24;;;;;;;1.30;0.73;;;;;;;;;;5028230;28;20084;-79
2023/11/30 00:57:50;;;;;;;1.50;1.00;;;;;;;;;;5033276;28;20010;-80
2023/11/30 01:00:16;;;;;;;1.40;1.10;;;;;;;;;;5036030;28;20033;-80
2023/11/30 01:02:42;;;;;;;1.27;0.98;;;;;;;;;;5033494;28;20041;-80
2023/11/30 01:05:09;;;;;;;1.90;0.95;;;;;;;;;;5027278;28;20089;-80
2023/11/30 01:07:36;;;;;;;1.55;0.90;;;;;;;;;;5028493;28;20026;-81
2023/11/30 01:10:03;;;;;;;1.08;0.98;;;;;;;;;;5017628;28;20121;-81
2023/11/30 01:12:29;;;;;;;1.30;0.98;;;;;;;;;;5014324;28;20026;-79
2023/11/30 01:14:55;;;;;;;0.73;0.70;;;;;;;;;;5011831;28;20420;-81
2023/11/30 01:17:23;;;;;;;1.20;1.10;;;;;;;;;;5020697;28;20022;-81
2023/11/30 01:19:49;;;;;;;1.00;0.90;;;;;;;;;;5016346;28;20038;-81
2023/11/30 01:22:15;;;;;;;1.52;0.98;;;;;;;;;;5020449;28;20037;-80
2023/11/30 01:24:41;;;;;;;1.13;0.73;;;;;;;;;;5021425;28;20181;-80
2023/11/30 01:27:07;;;;;;;2.78;2.25;;;;;;;;;;5026048;28;20043;-80
2023/11/30 01:29:33;;;;;;;2.05;0.98;;;;;;;;;;5037650;28;20045;-79
2023/11/30 01:32:00;;;;;;;0.68;0.60;;;;;;;;;;5028866;28;20029;-79
2023/11/30 01:34:26;;;;;;;0.63;0.60;;;;;;;;;;5026609;28;20054;-79
2023/11/30 01:36:52;;;;;;;1.02;0.80;;;;;;;;;;5018592;28;20043;-78
2023/11/30 01:39:18;;;;;;;1.13;0.75;;;;;;;;;;5027168;28;20018;-79
2023/11/30 01:41:44;;;;;;;1.20;0.63;;;;;;;;;;5026941;28;20098;-78
2023/11/30 01:44:10;;;;;;;0.95;0.77;;;;;;;;;;5037655;28;20029;-79
2023/11/30 01:46:37;;;;;;;0.93;0.73;;;;;;;;;;5031927;28;20029;-79
2023/11/30 01:49:04;;;;;;;0.70;0.55;;;;;;;;;;5033327;28;20048;-79
2023/11/30 01:51:35;;;;;;;0.73;0.50;;;;;;;;;;5035149;28;20036;-79
2023/11/30 01:54:02;;;;;;;1.27;0.85;;;;;;;;;;5030625;28;20152;-79
2023/11/30 01:56:28;;;;;;;1.02;0.85;;;;;;;;;;5035758;28;20022;-78
2023/11/30 01:58:55;;;;;;;1.08;0.80;;;;;;;;;;5053319;28;20105;-80
2023/11/30 02:01:21;;;;;;;0.50;0.50;;;;;;;;;;5026440;28;20057;-79
2023/11/30 02:03:47;;;;;;;0.60;0.60;;;;;;;;;;5032195;28;20021;-79
2023/11/30 02:06:18;;;;;;;0.60;0.60;;;;;;;;;;5034217;28;20037;-79
2023/11/30 02:08:45;;;;;;;0.45;0.45;;;;;;;;;;5032691;28;20030;-79
2023/11/30 02:11:11;;;;;;;0.47;0.40;;;;;;;;;;5033043;28;20026;-79
2023/11/30 02:13:37;;;;;;;0.73;0.60;;;;;;;;;;5023667;28;20045;-79
2023/11/30 02:16:03;;;;;;;0.30;0.30;;;;;;;;;;5031151;28;20021;-79
2023/11/30 02:18:29;;;;;;;0.40;0.40;;;;;;;;;;5032388;28;20038;-79
2023/11/30 02:20:56;;;;;;;0.55;0.50;;;;;;;;;;5033430;28;20032;-79
2023/11/30 02:23:22;;;;;;;1.20;0.40;;;;;;;;;;5033879;28;20076;-79
2023/11/30 02:25:48;;;;;;;0.43;0.30;;;;;;;;;;5031372;28;20142;-79
2023/11/30 02:28:17;;;;;;;0.40;0.40;;;;;;;;;;5043202;28;20071;-80
2023/11/30 02:30:46;;;;;;;0.40;0.40;;;;;;;;;;5037545;28;20014;-79
2023/11/30 02:33:12;;;;;;;0.95;0.50;;;;;;;;;;5027186;28;20112;-80
2023/11/30 02:35:38;;;;;;;0.65;0.38;;;;;;;;;;5019660;28;20050;-80
2023/11/30 02:38:04;;;;;;;1.02;0.50;;;;;;;;;;5019964;28;20028;-80
2023/11/30 02:40:30;;;;;;;0.43;0.30;;;;;;;;;;5025072;28;20102;-80
2023/11/30 02:42:56;;;;;;;0.75;0.50;;;;;;;;;;5026272;28;20029;-81
2023/11/30 02:45:22;;;;;;;0.50;0.40;;;;;;;;;;5025851;28;20033;-80
2023/11/30 02:47:48;;;;;;;0.22;0.22;;;;;;;;;;5025943;28;20037;-79
2023/11/30 02:50:20;;;;;;;0.75;0.40;;;;;;;;;;5024143;28;20034;-81
2023/11/30 02:52:46;;;;;;;0.30;0.30;;;;;;;;;;5025770;28;20041;-80
2023/11/30 02:55:12;;;;;;;0.75;0.47;;;;;;;;;;5024625;28;20148;-79
2023/11/30 02:57:38;;;;;;;0.60;0.40;;;;;;;;;;5042256;28;20040;-80
2023/11/30 03:00:05;;;;;;;0.85;0.28;;;;;;;;;;5048956;28;20018;-79
2023/11/30 03:02:31;;;;;;;0.57;0.52;;;;;;;;;;5041003;28;20036;-79
2023/11/30 03:04:57;;;;;;;0.55;0.52;;;;;;;;;;5040948;28;20021;-78
2023/11/30 03:07:23;;;;;;;0.30;0.30;;;;;;;;;;5037621;28;20026;-79
2023/11/30 03:09:49;;;;;;;0.22;0.20;;;;;;;;;;5025228;28;20061;-79
2023/11/30 03:12:15;;;;;;;0.30;0.17;;;;;;;;;;5026626;28;20077;-80
2023/11/30 03:14:45;;;;;;;0.20;0.20;;;;;;;;;;5025896;28;20057;-79
2023/11/30 03:17:11;;;;;;;0.43;0.40;;;;;;;;;;5025368;28;20024;-79
2023/11/30 03:19:40;;;;;;;0.47;0.30;;;;;;;;;;5023522;28;20044;-79
2023/11/30 03:22:07;;;;;;;0.40;0.40;;;;;;;;;;5024729;28;20049;-79
2023/11/30 03:24:33;;;;;;;0.20;0.20;;;;;;;;;;5025033;28;20030;-79
2023/11/30 03:26:59;;;;;;;0.47;0.40;;;;;;;;;;5033735;28;20029;-79
2023/11/30 03:29:25;;;;;;;0.45;0.32;;;;;;;;;;5036624;28;20036;-79
2023/11/30 03:31:51;;;;;;;0.30;0.30;;;;;;;;;;5016491;28;20084;-78
2023/11/30 03:34:17;;;;;;;0.40;0.40;;;;;;;;;;5021508;28;20022;-80
2023/11/30 03:36:43;;;;;;;0.30;0.30;;;;;;;;;;5019903;28;20022;-79
2023/11/30 03:39:09;;;;;;;0.30;0.20;;;;;;;;;;5019180;28;20022;-80
2023/11/30 03:41:35;;;;;;;0.28;0.28;;;;;;;;;;5011216;28;20097;-79
2023/11/30 03:44:01;;;;;;;0.40;0.22;;;;;;;;;;5023628;28;20030;-79
2023/11/30 03:46:28;;;;;;;0.20;0.20;;;;;;;;;;5032802;28;20021;-80
2023/11/30 03:48:54;;;;;;;0.28;0.22;;;;;;;;;;5026140;28;20384;-80
2023/11/30 03:51:21;;;;;;;0.30;0.30;;;;;;;;;;5031615;28;20072;-80
2023/11/30 03:53:47;;;;;;;0.43;0.30;;;;;;;;;;5021480;28;20128;-80
2023/11/30 03:56:13;;;;;;;0.28;0.20;;;;;;;;;;5025578;28;20098;-78
2023/11/30 03:58:39;;;;;;;0.30;0.20;;;;;;;;;;5048881;28;20021;-79
2023/11/30 04:01:06;;;;;;;0.55;0.35;;;;;;;;;;5030458;28;20399;-79
2023/11/30 04:03:32;;;;;;;0.20;0.20;;;;;;;;;;5025192;28;20061;-80
2023/11/30 04:05:58;;;;;;;0.43;0.32;;;;;;;;;;5021451;28;20041;-80
2023/11/30 04:08:24;;;;;;;0.30;0.30;;;;;;;;;;5034729;28;20021;-78
2023/11/30 04:10:50;;;;;;;0.30;0.30;;;;;;;;;;5036461;28;20018;-79
2023/11/30 04:13:17;;;;;;;0.10;0.10;;;;;;;;;;5031187;28;20072;-81
2023/11/30 04:15:43;;;;;;;0.30;0.30;;;;;;;;;;5022226;28;20101;-80
2023/11/30 04:18:10;;;;;;;0.20;0.20;;;;;;;;;;5021937;28;20053;-80
2023/11/30 04:20:36;;;;;;;0.20;0.20;;;;;;;;;;5021103;28;20058;-80
2023/11/30 04:23:02;;;;;;;0.80;0.30;;;;;;;;;;5021525;28;20095;-79
2023/11/30 04:25:28;;;;;;;0.22;0.22;;;;;;;;;;5023157;28;20026;-79
2023/11/30 04:27:54;;;;;;;0.30;0.20;;;;;;;;;;5038379;28;20045;-79
2023/11/30 04:30:20;;;;;;;0.57;0.32;;;;;;;;;;5034246;28;20449;-80
2023/11/30 04:32:46;;;;;;;0.35;0.35;;;;;;;;;;5020062;28;20041;-80
2023/11/30 04:35:12;;;;;;;0.35;0.32;;;;;;;;;;5020406;28;20026;-80
2023/11/30 04:37:38;;;;;;;0.30;0.30;;;;;;;;;;5017362;28;20026;-80
2023/11/30 04:40:05;;;;;;;0.28;0.20;;;;;;;;;;5017802;28;20034;-80
2023/11/30 04:42:31;;;;;;;0.57;0.40;;;;;;;;;;5018504;28;20026;-80
2023/11/30 04:44:57;;;;;;;0.73;0.43;;;;;;;;;;5020130;28;20087;-83
2023/11/30 04:47:23;;;;;;;0.50;0.50;;;;;;;;;;5020562;28;20507;-80
2023/11/30 04:49:49;;;;;;;0.52;0.40;;;;;;;;;;5020253;28;20092;-79
2023/11/30 04:52:15;;;;;;;0.25;0.25;;;;;;;;;;5019766;28;20113;-79
2023/11/30 04:54:42;;;;;;;0.20;0.20;;;;;;;;;;5019088;28;20426;-81
2023/11/30 04:57:08;;;;;;;0.73;0.32;;;;;;;;;;5028013;28;20040;-80
2023/11/30 04:59:34;;;;;;;0.45;0.43;;;;;;;;;;5038332;28;20037;-81
2023/11/30 05:02:00;;;;;;;0.90;0.40;;;;;;;;;;5020716;28;20045;-81
2023/11/30 05:04:26;;;;;;;0.22;0.22;;;;;;;;;;5027822;28;20025;-82
2023/11/30 05:06:52;;;;;;;0.40;0.40;;;;;;;;;;5020537;28;20337;-82
2023/11/30 05:09:18;;;;;;;0.32;0.30;;;;;;;;;;5020241;28;20014;-83
2023/11/30 05:11:44;;;;;;;0.82;0.30;;;;;;;;;;5020163;28;20030;-82
2023/11/30 05:14:10;;;;;;;0.93;0.70;;;;;;;;;;5018395;28;20034;-83
2023/11/30 05:16:36;;;;;;;3.03;0.60;;;;;;;;;;5032235;28;20041;-78
2023/11/30 05:19:02;;;;;;;2.58;0.60;;;;;;;;;;5028905;28;20029;-81
2023/11/30 05:21:28;;;;;;;0.75;0.50;;;;;;;;;;5018677;28;20072;-82
2023/11/30 05:23:54;;;;;;;0.60;0.38;;;;;;;;;;5014985;28;20015;-81
2023/11/30 05:26:20;;;;;;;1.55;0.70;;;;;;;;;;5018116;28;20033;-81
2023/11/30 05:28:46;;;;;;;1.27;0.70;;;;;;;;;;5019134;28;20423;-80
2023/11/30 05:31:13;;;;;;;1.45;0.63;;;;;;;;;;5016239;28;20462;-80
2023/11/30 05:33:39;;;;;;;0.40;0.40;;;;;;;;;;5019640;28;20017;-81
2023/11/30 05:36:05;;;;;;;0.30;0.30;;;;;;;;;;5017907;28;20108;-79
2023/11/30 05:38:31;;;;;;;1.27;0.80;;;;;;;;;;5016373;28;20033;-81
2023/11/30 05:40:57;;;;;;;0.85;0.60;;;;;;;;;;5016974;28;20040;-80
2023/11/30 05:43:23;;;;;;;0.98;0.63;;;;;;;;;;5016601;28;20033;-81
2023/11/30 05:45:49;;;;;;;0.95;0.85;;;;;;;;;;5017382;28;20029;-80
2023/11/30 05:48:15;;;;;;;0.80;0.80;;;;;;;;;;5016233;28;20109;-81
2023/11/30 05:50:41;;;;;;;0.98;0.82;;;;;;;;;;5018130;28;20040;-81
2023/11/30 05:53:07;;;;;;;0.60;0.57;;;;;;;;;;5018384;28;20021;-80
2023/11/30 05:55:34;;;;;;;1.20;0.77;;;;;;;;;;5016919;28;20030;-82
2023/11/30 05:58:00;;;;;;;0.32;0.32;;;;;;;;;;5034524;28;20051;-80
2023/11/30 06:00:26;;;;;;;1.60;1.00;;;;;;;;;;5030168;28;20040;-82
2023/11/30 06:02:53;;;;;;;2.05;0.70;;;;;;;;;;5018728;28;20029;-82
2023/11/30 06:05:19;;;;;;;0.63;0.45;;;;;;;;;;5020632;28;20037;-82
2023/11/30 06:07:45;;;;;;;0.77;0.40;;;;;;;;;;5019399;28;20105;-82
2023/11/30 06:10:11;;;;;;;0.55;0.43;;;;;;;;;;5019717;28;20044;-82
2023/11/30 06:12:39;;;;;;;0.30;0.30;;;;;;;;;;5020085;28;20109;-81
2023/11/30 06:15:05;;;;;;;0.47;0.30;;;;;;;;;;5023320;28;20471;-82
2023/11/30 06:17:31;;;;;;;0.55;0.40;;;;;;;;;;5022342;28;20029;-82
2023/11/30 06:19:57;;;;;;;0.40;0.40;;;;;;;;;;5019263;28;20021;-82
2023/11/30 06:22:23;;;;;;;1.02;0.50;;;;;;;;;;5017880;28;20014;-82
2023/11/30 06:24:49;;;;;;;0.68;0.68;;;;;;;;;;5016078;28;20120;-82
2023/11/30 06:27:15;;;;;;;0.40;0.40;;;;;;;;;;5025210;28;20030;-83
2023/11/30 06:29:41;;;;;;;0.40;0.40;;;;;;;;;;5028796;28;20029;-83
2023/11/30 06:32:08;;;;;;;0.68;0.60;;;;;;;;;;5017888;28;20036;-83
2023/11/30 06:34:35;;;;;;;0.35;0.32;;;;;;;;;;5018581;28;20034;-81
2023/11/30 06:37:01;;;;;;;1.05;0.40;;;;;;;;;;5017721;28;20504;-83
2023/11/30 06:39:28;;;;;;;0.75;0.57;;;;;;;;;;5015885;28;20018;-82
2023/11/30 06:41:54;;;;;;;0.40;0.40;;;;;;;;;;5017622;28;20025;-80
2023/11/30 06:44:20;;;;;;;0.40;0.40;;;;;;;;;;5022527;28;20025;-80
2023/11/30 06:46:46;;;;;;;0.40;0.30;;;;;;;;;;5020976;28;20026;-81
2023/11/30 06:49:16;;;;;;;0.73;0.40;;;;;;;;;;5018310;28;20030;-82
2023/11/30 06:51:42;;;;;;;2.20;0.50;;;;;;;;;;5011206;28;20037;-81
2023/11/30 06:54:08;;;;;;;0.75;0.63;;;;;;;;;;5018716;28;20103;-80
2023/11/30 06:56:34;;;;;;;0.60;0.32;;;;;;;;;;5023347;28;20017;-81
2023/11/30 06:59:00;;;;;;;0.75;0.55;;;;;;;;;;5032291;28;20030;-79
2023/11/30 07:01:27;;;;;;;0.57;0.40;;;;;;;;;;5028220;28;20034;-82
2023/11/30 07:03:54;;;;;;;0.55;0.47;;;;;;;;;;5029848;28;20020;-82
2023/11/30 07:06:21;;;;;;;0.22;0.22;;;;;;;;;;5024562;28;20026;-82
2023/11/30 07:08:47;;;;;;;0.30;0.30;;;;;;;;;;5033398;28;20018;-82
2023/11/30 07:11:14;;;;;;;0.60;0.40;;;;;;;;;;5033710;28;20086;-83
2023/11/30 07:13:40;;;;;;;0.95;0.43;;;;;;;;;;5029604;28;20085;-84
2023/11/30 07:16:07;;;;;;;0.45;0.30;;;;;;;;;;5023731;28;20060;-84
2023/11/30 07:18:34;;;;;;;0.63;0.40;;;;;;;;;;5033472;28;20034;-84
2023/11/30 07:21:04;;;;;;;0.55;0.30;;;;;;;;;;5012100;28;20030;-84
2023/11/30 07:23:30;;;;;;;1.17;0.52;;;;;;;;;;5010320;28;20433;-85
2023/11/30 07:25:58;;;;;;;0.43;0.40;;;;;;;;;;5021824;28;20025;-80
2023/11/30 07:28:24;;;;;;;0.60;0.40;;;;;;;;;;5031763;28;20018;-83
2023/11/30 07:30:50;;;;;;;0.52;0.50;;;;;;;;;;5023782;28;20365;-83
2023/11/30 07:33:16;;;;;;;0.95;0.50;;;;;;;;;;5021781;28;20108;-82
2023/11/30 07:35:43;;;;;;;0.68;0.47;;;;;;;;;;5009467;28;20033;-81
2023/11/30 07:38:09;;;;;;;0.40;0.30;;;;;;;;;;5022696;28;20049;-82
2023/11/30 07:40:35;;;;;;;0.32;0.32;;;;;;;;;;5024171;28;20022;-81
2023/11/30 07:43:01;;;;;;;0.40;0.30;;;;;;;;;;5021783;28;20022;-81
2023/11/30 07:45:29;;;;;;;0.40;0.40;;;;;;;;;;5023321;28;20095;-82
2023/11/30 07:47:56;;;;;;;0.35;0.35;;;;;;;;;;5025144;28;20050;-81
2023/11/30 07:50:22;;;;;;;1.38;0.70;;;;;;;;;;5022134;28;20091;-81
2023/11/30 07:52:48;;;;;;;1.13;0.63;;;;;;;;;;5023333;28;20036;-82
2023/11/30 07:55:15;;;;;;;0.47;0.43;;;;;;;;;;5025294;28;20033;-82
2023/11/30 07:57:41;;;;;;;1.20;0.63;;;;;;;;;;5032886;28;20042;-82
2023/11/30 08:00:08;;;;;;;0.50;0.40;;;;;;;;;;5031730;28;20038;-82
2023/11/30 08:02:34;;;;;;;0.75;0.60;;;;;;;;;;5027689;28;20014;-81
2023/11/30 08:05:00;;;;;;;0.65;0.50;;;;;;;;;;5029213;28;20021;-81
2023/11/30 08:07:27;;;;;;;2.15;0.50;;;;;;;;;;5029780;28;20044;-81
2023/11/30 08:09:53;;;;;;;1.35;0.50;;;;;;;;;;5032825;28;20032;-81
2023/11/30 08:12:19;;;;;;;0.73;0.43;;;;;;;;;;5036310;28;20033;-81
2023/11/30 08:14:45;;;;;;;1.70;0.65;;;;;;;;;;5033124;28;20034;-81
2023/11/30 08:17:11;;;;;;;0.70;0.70;;;;;;;;;;5031413;28;20021;-80
2023/11/30 08:19:37;;;;;;;1.08;0.60;;;;;;;;;;5027684;28;20026;-82
2023/11/30 08:22:03;;;;;;;1.08;0.63;;;;;;;;;;5020873;28;20022;-82
2023/11/30 08:24:29;;;;;;;1.15;0.63;;;;;;;;;;5029452;28;20021;-81
2023/11/30 08:26:55;;;;;;;1.15;0.60;;;;;;;;;;5015785;28;20067;-83
2023/11/30 08:29:21;;;;;;;0.93;0.60;;;;;;;;;;5034747;28;20026;-80
2023/11/30 08:31:48;;;;;;;0.98;0.70;;;;;;;;;;5034128;28;20025;-81
2023/11/30 08:34:14;;;;;;;1.75;0.50;;;;;;;;;;5025378;28;20038;-81
2023/11/30 08:36:40;;;;;;;0.95;0.70;;;;;;;;;;5028033;28;20021;-82
2023/11/30 08:39:06;;;;;;;0.70;0.70;;;;;;;;;;5030404;28;20089;-82
2023/11/30 08:41:32;;;;;;;0.55;0.55;;;;;;;;;;5023063;28;20036;-81
2023/11/30 08:43:58;;;;;;;1.10;0.77;;;;;;;;;;5024361;28;20069;-81
2023/11/30 08:46:24;;;;;;;1.17;0.68;;;;;;;;;;5021433;28;20133;-81
2023/11/30 08:48:50;;;;;;;0.90;0.68;;;;;;;;;;5023103;28;20064;-82
2023/11/30 08:51:16;;;;;;;1.35;0.82;;;;;;;;;;5022603;28;20013;-82
2023/11/30 08:53:42;;;;;;;1.83;0.80;;;;;;;;;;5022344;28;20040;-82
2023/11/30 08:56:10;;;;;;;1.90;0.88;;;;;;;;;;5025413;28;20485;-82
2023/11/30 08:58:36;;;;;;;1.13;0.73;;;;;;;;;;5034062;28;20062;-81
2023/11/30 09:01:03;;;;;;;1.20;0.93;;;;;;;;;;5020393;28;20034;-82
2023/11/30 09:03:29;;;;;;;1.10;0.80;;;;;;;;;;5020569;28;20018;-81
2023/11/30 09:05:55;;;;;;;1.20;0.50;;;;;;;;;;5022300;28;20101;-82
2023/11/30 09:08:21;;;;;;;0.88;0.70;;;;;;;;;;5024421;28;20032;-82
2023/11/30 09:10:47;;;;;;;1.65;0.85;;;;;;;;;;5028420;28;20029;-81
2023/11/30 09:13:13;;;;;;;2.63;0.90;;;;;;;;;;5020004;28;20048;-82
2023/11/30 09:15:39;;;;;;;0.63;0.60;;;;;;;;;;5020533;28;20029;-81
2023/11/30 09:18:07;;;;;;;1.15;0.60;;;;;;;;;;5019427;28;20083;-82
2023/11/30 09:20:34;;;;;;;1.23;0.60;;;;;;;;;;5020486;28;20029;-84
2023/11/30 09:23:00;;;;;;;0.90;0.75;;;;;;;;;;5025094;28;20022;-82
2023/11/30 09:25:27;;;;;;;1.15;1.00;;;;;;;;;;5018752;28;20080;-82
2023/11/30 09:27:53;;;;;;;1.08;0.80;;;;;;;;;;5033547;28;20077;-82
2023/11/30 09:30:20;;;;;;;1.90;1.08;;;;;;;;;;5023437;28;20026;-82
2023/11/30 09:32:46;;;;;;;1.67;0.88;;;;;;;;;;5019262;28;20029;-82
2023/11/30 09:35:12;;;;;;;1.15;0.80;;;;;;;;;;5020996;28;20388;-82
2023/11/30 09:37:38;;;;;;;1.58;0.73;;;;;;;;;;5020278;28;20041;-82
2023/11/30 09:40:09;;;;;;;0.98;0.88;;;;;;;;;;5019775;28;20022;-82
2023/11/30 09:42:35;;;;;;;0.82;0.60;;;;;;;;;;5018393;28;20021;-82
2023/11/30 09:45:04;;;;;;;1.63;1.27;;;;;;;;;;5020693;28;20030;-82
2023/11/30 09:47:30;;;;;;;1.55;1.00;;;;;;;;;;5020308;28;20030;-82
2023/11/30 09:49:57;;;;;;;2.22;1.30;;;;;;;;;;5021813;28;20033;-82
2023/11/30 09:52:23;;;;;;;4.00;1.83;;;;;;;;;;5020560;28;20022;-81
2023/11/30 09:54:54;;;;;;;2.33;1.48;;;;;;;;;;5021618;28;20030;-82
2023/11/30 09:57:20;;;;;;;2.10;1.30;;;;;;;;;;5027588;28;20017;-82
2023/11/30 09:59:46;;;;;;;1.38;1.27;;;;;;;;;;5026518;28;20050;-82
2023/11/30 10:02:12;;;;;;;1.70;1.10;;;;;;;;;;5019245;28;20021;-81
2023/11/30 10:04:40;;;;;;;2.25;1.60;;;;;;;;;;5022538;28;20500;-81
2023/11/30 10:07:07;;;;;;;2.03;1.30;;;;;;;;;;5025948;28;20026;-82
2023/11/30 10:09:35;;;;;;;2.28;1.50;;;;;;;;;;5021887;28;20080;-81
2023/11/30 10:12:03;;;;;;;1.85;1.13;;;;;;;;;;5020595;28;20014;-82
2023/11/30 10:14:30;;;;;;;1.65;1.20;;;;;;;;;;5021864;28;20107;-82
2023/11/30 10:16:56;;;;;;;2.35;1.40;;;;;;;;;;5020368;28;20053;-82
2023/11/30 10:19:22;;;;;;;2.25;1.33;;;;;;;;;;5019859;28;20010;-82
2023/11/30 10:21:48;;;;;;;2.33;1.50;;;;;;;;;;5018813;28;20071;-82
2023/11/30 10:24:14;;;;;;;4.43;1.73;;;;;;;;;;5020905;28;20054;-82
2023/11/30 10:26:43;;;;;;;2.83;1.85;;;;;;;;;;5026450;28;20034;-81
2023/11/30 10:29:11;;;;;;;4.53;2.13;;;;;;;;;;5027416;28;20018;-81
2023/11/30 10:31:39;;;;;;;4.55;2.65;;;;;;;;;;5019735;28;20029;-81
2023/11/30 10:34:10;;;;;;;4.22;2.60;;;;;;;;;;5021940;28;20056;-81
2023/11/30 10:36:36;;;;;;;3.50;2.33;;;;;;;;;;5019889;28;20038;-81
2023/11/30 10:39:18;;;;;;;2.75;2.10;;;;;;;;;;5019064;28;20033;-81
2023/11/30 10:41:54;;;;;;;2.78;2.05;;;;;;;;;;5019500;28;20048;-82
2023/11/30 10:44:25;;;;;;;4.22;2.17;;;;;;;;;;5019292;28;20037;-82
2023/11/30 10:46:53;;;;;;;4.38;2.55;;;;;;;;;;5018954;28;20026;-81
2023/11/30 10:49:21;;;;;;;5.65;2.80;;;;;;;;;;5021328;28;20110;-81
2023/11/30 10:51:48;;;;;;;7.88;2.95;;;;;;;;;;5019636;28;20085;-82
2023/11/30 10:54:20;;;;;;;3.60;2.55;;;;;;;;;;5019167;28;20026;-81
2023/11/30 10:56:47;;;;;;;3.45;2.63;;;;;;;;;;5019117;28;20033;-82
2023/11/30 10:59:13;;;;;;;4.82;2.40;;;;;;;;;;5027819;28;20052;-81
2023/11/30 11:01:40;;;;;;;2.78;1.92;;;;;;;;;;5023713;28;20384;-80
2023/11/30 11:04:08;;;;;;;4.97;2.90;;;;;;;;;;5023618;28;20022;-81
2023/11/30 11:06:34;;;;;;;4.60;2.00;;;;;;;;;;5025912;28;20077;-81
2023/11/30 11:09:01;;;;;;;2.83;1.83;;;;;;;;;;5036573;28;20041;-80
2023/11/30 11:11:31;;;;;;;2.47;1.95;;;;;;;;;;5031689;28;20076;-81
2023/11/30 11:13:57;;;;;;;3.55;2.47;;;;;;;;;;5023176;28;20025;-81
2023/11/30 11:16:37;;;;;;;5.10;2.40;;;;;;;;;;5037257;23;20037;-77
2023/11/30 11:19:07;;;;;;;5.28;2.05;;;;;;;;;;5024565;28;20235;-79
2023/11/30 11:21:37;;;;;;;3.47;2.28;;;;;;;;;;5021617;28;20022;-77
2023/11/30 11:24:05;;;;;;;3.53;2.30;;;;;;;;;;5027650;28;20040;-79
2023/11/30 11:26:47;;;;;;;3.65;2.35;;;;;;;;;;5022581;28;20030;-79
2023/11/30 11:29:14;;;;;;;3.83;2.40;;;;;;;;;;5010575;28;20365;-79
2023/11/30 11:31:43;;;;;;;2.55;2.10;;;;;;;;;;5024464;28;20030;-79
2023/11/30 11:34:10;;;;;;;2.78;2.00;;;;;;;;;;5022723;28;20413;-78
2023/11/30 11:36:42;;;;;;;3.13;1.85;;;;;;;;;;5003552;28;20022;-79
2023/11/30 11:39:13;;;;;;;2.10;1.90;;;;;;;;;;5017354;28;20018;-79
2023/11/30 11:41:39;;;;;;;3.42;1.85;;;;;;;;;;5009759;28;20080;-80
2023/11/30 11:44:07;;;;;;;2.78;1.98;;;;;;;;;;5017343;28;20484;-80
2023/11/30 11:46:33;;;;;;;2.50;1.77;;;;;;;;;;5018677;28;20018;-79
2023/11/30 11:48:59;;;;;;;2.45;1.73;;;;;;;;;;5019241;28;20029;-78
2023/11/30 11:51:26;;;;;;;3.05;2.10;;;;;;;;;;5024352;28;20018;-78
2023/11/30 11:53:52;;;;;;;1.67;1.42;;;;;;;;;;5013647;28;20018;-77
2023/11/30 11:56:18;;;;;;;2.88;1.77;;;;;;;;;;5029981;28;20085;-78
2023/11/30 11:58:44;;;;;;;2.25;1.70;;;;;;;;;;5033203;28;20044;-78
2023/11/30 12:01:11;;;;;;;2.67;1.90;;;;;;;;;;5024646;28;20061;-78
2023/11/30 12:03:47;;;;;;;2.67;1.67;;;;;;;;;;5026829;28;20030;-78
2023/11/30 12:06:14;;;;;;;3.10;1.60;;;;;;;;;;5012715;28;20037;-76
2023/11/30 12:08:40;;;;;;;2.50;1.88;;;;;;;;;;5020894;28;20093;-78
2023/11/30 12:11:06;;;;;;;1.98;1.70;;;;;;;;;;5021935;28;20029;-77
2023/11/30 12:13:37;;;;;;;2.83;1.70;;;;;;;;;;5024392;28;20034;-79
2023/11/30 12:16:04;;;;;;;2.30;1.52;;;;;;;;;;5019788;28;20025;-79
2023/11/30 12:18:30;;;;;;;1.77;1.50;;;;;;;;;;5010540;28;20100;-79
2023/11/30 12:20:57;;;;;;;2.08;1.60;;;;;;;;;;5020865;28;20026;-79
2023/11/30 12:23:23;;;;;;;1.77;1.55;;;;;;;;;;5012693;28;20057;-80
2023/11/30 12:25:49;;;;;;;1.42;1.33;;;;;;;;;;5009100;28;20064;-79
2023/11/30 12:28:15;;;;;;;2.92;1.55;;;;;;;;;;5020209;28;20136;-79
2023/11/30 12:30:41;;;;;;;2.90;1.67;;;;;;;;;;5021022;28;20036;-79
2023/11/30 12:33:08;;;;;;;3.25;1.88;;;;;;;;;;5015431;28;20510;-78
2023/11/30 12:35:34;;;;;;;2.33;2.08;;;;;;;;;;5014770;28;20034;-78
2023/11/30 12:38:00;;;;;;;4.20;2.58;;;;;;;;;;5014606;28;20021;-79
2023/11/30 12:40:26;;;;;;;2.17;1.75;;;;;;;;;;5014623;28;20480;-80
2023/11/30 12:42:52;;;;;;;3.20;2.22;;;;;;;;;;5010551;28;20030;-78
2023/11/30 12:45:18;;;;;;;3.35;2.55;;;;;;;;;;5006862;28;20033;-80
2023/11/30 12:47:46;;;;;;;3.03;2.30;;;;;;;;;;5013183;28;20064;-77
2023/11/30 12:50:12;;;;;;;3.97;1.90;;;;;;;;;;5013594;28;20488;-78
2023/11/30 12:52:38;;;;;;;2.53;1.70;;;;;;;;;;5006057;28;20054;-78
2023/11/30 12:55:05;;;;;;;2.78;2.13;;;;;;;;;;5009767;28;20050;-79
2023/11/30 12:57:34;;;;;;;2.47;1.90;;;;;;;;;;5009342;28;20026;-79
2023/11/30 13:00:01;;;;;;;2.20;1.85;;;;;;;;;;5014230;28;20026;-80
2023/11/30 13:02:27;;;;;;;2.30;1.60;;;;;;;;;;5020844;28;20034;-79
2023/11/30 13:04:54;;;;;;;2.97;2.08;;;;;;;;;;5011781;28;20032;-79
2023/11/30 13:07:20;;;;;;;4.53;2.47;;;;;;;;;;5008635;28;20030;-78
2023/11/30 13:09:46;;;;;;;5.60;2.75;;;;;;;;;;5012452;28;20026;-79
2023/11/30 13:12:13;;;;;;;2.90;1.88;;;;;;;;;;5009153;28;20030;-79
2023/11/30 13:14:39;;;;;;;2.47;1.83;;;;;;;;;;5030875;28;20029;-78
2023/11/30 13:17:05;;;;;;;2.95;2.33;;;;;;;;;;5018022;28;20483;-80
2023/11/30 13:19:32;;;;;;;2.63;1.75;;;;;;;;;;5015323;28;20036;-79
2023/11/30 13:21:58;;;;;;;3.20;2.20;;;;;;;;;;5026960;28;20013;-79
2023/11/30 13:24:24;;;;;;;2.50;2.30;;;;;;;;;;5038676;28;20101;-78
2023/11/30 13:26:50;;;;;;;3.55;2.58;;;;;;;;;;5027383;28;20053;-78
2023/11/30 13:29:17;;;;;;;2.20;1.95;;;;;;;;;;5032016;28;20015;-79
2023/11/30 13:31:43;;;;;;;2.53;1.52;;;;;;;;;;5032659;28;20040;-80
2023/11/30 13:34:09;;;;;;;2.50;1.75;;;;;;;;;;5015527;28;20045;-80
2023/11/30 13:36:35;;;;;;;2.97;2.10;;;;;;;;;;5051104;28;20043;-78
2023/11/30 13:39:04;;;;;;;2.95;2.30;;;;;;;;;;5028658;28;20018;-78
2023/11/30 13:41:30;;;;;;;2.30;2.10;;;;;;;;;;5023135;28;20018;-76
2023/11/30 13:43:57;;;;;;;2.47;1.90;;;;;;;;;;5033804;28;20014;-77
2023/11/30 13:46:23;;;;;;;2.42;1.98;;;;;;;;;;5033088;28;20057;-77
2023/11/30 13:48:50;;;;;;;3.22;2.08;;;;;;;;;;5056813;28;20021;-78
2023/11/30 13:51:17;;;;;;;2.25;1.92;;;;;;;;;;5056949;28;20057;-78
2023/11/30 13:53:43;;;;;;;2.60;1.67;;;;;;;;;;5034819;28;20101;-78
2023/11/30 13:56:09;;;;;;;2.45;2.15;;;;;;;;;;5032935;28;20052;-79
2023/11/30 13:58:35;;;;;;;3.00;1.88;;;;;;;;;;5028794;28;20092;-79
2023/11/30 14:01:02;;;;;;;2.00;1.77;;;;;;;;;;5015522;28;20023;-79
2023/11/30 14:03:28;;;;;;;2.20;1.75;;;;;;;;;;5033544;28;20018;-80
2023/11/30 14:05:54;;;;;;;1.88;1.50;;;;;;;;;;5037323;28;20036;-80
2023/11/30 14:08:21;;;;;;;2.25;1.80;;;;;;;;;;5048843;28;20022;-79
2023/11/30 14:10:47;;;;;;;1.85;1.58;;;;;;;;;;5030415;28;20036;-78
2023/11/30 14:13:14;;;;;;;1.67;1.52;;;;;;;;;;5021024;28;20058;-78
2023/11/30 14:15:40;;;;;;;1.40;1.30;;;;;;;;;;5028120;28;20060;-80
2023/11/30 14:18:07;;;;;;;2.00;1.33;;;;;;;;;;5009842;28;20034;-79
2023/11/30 14:20:34;;;;;;;1.90;1.38;;;;;;;;;;5009686;28;20022;-79
2023/11/30 14:23:00;;;;;;;1.35;1.25;;;;;;;;;;5011475;28;20051;-79
2023/11/30 14:25:27;;;;;;;2.28;1.48;;;;;;;;;;5004703;28;20102;-78
2023/11/30 14:27:54;;;;;;;1.45;1.15;;;;;;;;;;5006390;28;20036;-78
2023/11/30 14:30:20;;;;;;;1.63;1.10;;;;;;;;;;5010102;28;20037;-78
2023/11/30 14:32:46;;;;;;;2.00;1.48;;;;;;;;;;5006636;28;20042;-79
2023/11/30 14:35:12;;;;;;;1.48;0.93;;;;;;;;;;5011176;28;20024;-78
2023/11/30 14:37:38;;;;;;;1.85;1.38;;;;;;;;;;5012682;28;20519;-79
2023/11/30 14:40:08;;;;;;;2.33;1.95;;;;;;;;;;5010823;28;20112;-79